createdAt,value
2023-08-04T00:00:31.436Z,16.41
2023-08-04T00:02:58.778Z,16.41
2023-08-04T00:05:25.709Z,16.37
2023-08-04T00:07:52.469Z,16.35
2023-08-04T00:10:19.651Z,16.35
2023-08-04T00:12:47.259Z,16.30
2023-08-04T00:15:14.241Z,16.22
2023-08-04T00:17:41.127Z,16.27
2023-08-04T00:20:10.111Z,16.30
2023-08-04T00:22:36.939Z,16.27
2023-08-04T00:25:04.324Z,16.28
2023-08-04T00:27:31.220Z,16.33
2023-08-04T00:29:57.937Z,16.39
2023-08-04T00:32:24.743Z,16.33
2023-08-04T00:34:51.585Z,16.39
2023-08-04T00:37:18.377Z,16.42
2023-08-04T00:39:45.177Z,16.29
2023-08-04T00:42:12.079Z,16.26
2023-08-04T00:44:38.839Z,16.25
2023-08-04T00:47:06.607Z,16.27
2023-08-04T00:49:33.941Z,16.21
2023-08-04T00:52:00.858Z,16.15
2023-08-04T00:54:27.546Z,16.13
2023-08-04T00:56:55.552Z,16.11
2023-08-04T00:59:22.383Z,16.09
2023-08-04T01:01:50.959Z,16.11
2023-08-04T01:04:19.781Z,16.10
2023-08-04T01:07:10.310Z,16.07
2023-08-04T01:09:45.473Z,16.10
2023-08-04T01:12:36.809Z,16.10
2023-08-04T01:15:04.101Z,16.07
2023-08-04T01:17:33.140Z,16.13
2023-08-04T01:20:00.324Z,16.09
2023-08-04T01:22:27.410Z,16.09
2023-08-04T01:24:55.401Z,16.14
2023-08-04T01:27:42.989Z,16.16
2023-08-04T01:30:13.743Z,16.15
2023-08-04T01:32:40.638Z,16.12
2023-08-04T01:35:08.785Z,16.07
2023-08-04T01:37:35.595Z,16.10
2023-08-04T01:40:02.829Z,16.05
2023-08-04T01:42:29.570Z,16.05
2023-08-04T01:44:56.423Z,16.05
2023-08-04T01:47:23.174Z,16.00
2023-08-04T01:49:49.909Z,15.99
2023-08-04T01:52:16.840Z,16.00
2023-08-04T01:54:43.675Z,15.94
2023-08-04T01:57:10.516Z,15.93
2023-08-04T01:59:37.241Z,15.88
2023-08-04T02:02:04.225Z,15.87
2023-08-04T02:04:30.936Z,15.88
2023-08-04T02:06:57.705Z,15.90
2023-08-04T02:09:26.947Z,15.89
2023-08-04T02:11:53.729Z,15.90
2023-08-04T02:14:20.496Z,15.95
2023-08-04T02:16:47.243Z,15.86
2023-08-04T02:19:13.900Z,15.86
2023-08-04T02:21:40.645Z,15.85
2023-08-04T02:24:07.441Z,15.84
2023-08-04T02:26:34.251Z,15.82
2023-08-04T02:29:01.133Z,15.76
2023-08-04T02:31:29.855Z,15.77
2023-08-04T02:33:56.699Z,15.89
2023-08-04T02:36:23.388Z,15.86
2023-08-04T02:38:50.188Z,15.85
2023-08-04T02:41:16.957Z,15.81
2023-08-04T02:43:43.861Z,15.79
2023-08-04T02:46:14.116Z,15.73
2023-08-04T02:48:41.619Z,15.71
2023-08-04T02:51:09.121Z,15.71
2023-08-04T02:53:36.901Z,15.71
2023-08-04T02:56:14.598Z,15.63
2023-08-04T02:58:42.976Z,15.65
2023-08-04T03:01:10.171Z,15.73
2023-08-04T03:03:36.995Z,15.74
2023-08-04T03:06:04.022Z,15.75
2023-08-04T03:08:32.622Z,15.72
2023-08-04T03:10:59.969Z,15.78
2023-08-04T03:13:27.368Z,15.74
2023-08-04T03:16:01.948Z,15.74
2023-08-04T03:18:29.192Z,15.74
2023-08-04T03:20:56.314Z,15.78
2023-08-04T03:23:23.336Z,15.80
2023-08-04T03:25:50.249Z,15.81
2023-08-04T03:28:17.168Z,15.75
2023-08-04T03:30:43.973Z,15.84
2023-08-04T03:33:10.752Z,15.85
2023-08-04T03:35:37.632Z,15.81
2023-08-04T03:38:05.093Z,15.82
2023-08-04T03:40:31.851Z,15.77
2023-08-04T03:42:59.146Z,15.73
2023-08-04T03:45:26.038Z,15.74
2023-08-04T03:47:53.033Z,15.64
2023-08-04T03:50:20.036Z,15.69
2023-08-04T03:52:46.783Z,15.76
2023-08-04T03:55:13.477Z,15.75
2023-08-04T03:57:40.226Z,15.84
2023-08-04T04:00:07.776Z,15.86
2023-08-04T04:02:34.893Z,15.78
2023-08-04T04:05:01.947Z,15.82
2023-08-04T04:07:28.637Z,15.89
2023-08-04T04:09:55.448Z,15.91
2023-08-04T04:12:22.144Z,15.87
2023-08-04T04:14:48.855Z,15.88
2023-08-04T04:17:15.587Z,15.88
2023-08-04T04:19:42.357Z,15.84
2023-08-04T04:22:10.482Z,15.85
2023-08-04T04:24:37.350Z,15.80
2023-08-04T04:27:04.253Z,15.87
2023-08-04T04:29:31.095Z,15.90
2023-08-04T04:31:57.744Z,15.89
2023-08-04T04:34:24.641Z,15.93
2023-08-04T04:36:51.405Z,15.96
2023-08-04T04:39:18.147Z,15.95
2023-08-04T04:41:45.108Z,15.94
2023-08-04T04:44:12.257Z,15.92
2023-08-04T04:46:38.927Z,15.87
2023-08-04T04:49:05.744Z,15.91
2023-08-04T04:51:32.512Z,15.92
2023-08-04T04:53:59.226Z,15.87
2023-08-04T04:56:25.872Z,15.97
2023-08-04T04:58:52.613Z,16.02
2023-08-04T05:01:19.522Z,16.06
2023-08-04T05:03:46.283Z,16.07
2023-08-04T05:06:12.967Z,16.13
2023-08-04T05:08:39.749Z,16.09
2023-08-04T05:11:06.500Z,16.17
2023-08-04T05:13:33.335Z,16.20
2023-08-04T05:16:00.081Z,16.19
2023-08-04T05:18:27.250Z,16.23
2023-08-04T05:20:53.885Z,16.32
2023-08-04T05:23:20.571Z,16.42
2023-08-04T05:25:47.412Z,16.46
2023-08-04T05:28:21.596Z,16.68
2023-08-04T05:30:48.805Z,16.67
2023-08-04T05:33:15.546Z,16.52
2023-08-04T05:35:46.176Z,16.53
2023-08-04T05:38:14.073Z,16.48
2023-08-04T05:40:43.743Z,16.53
2023-08-04T05:43:11.475Z,16.60
2023-08-04T05:45:39.502Z,16.69
2023-08-04T05:48:06.608Z,16.56
2023-08-04T05:50:33.649Z,16.51
2023-08-04T05:53:00.895Z,16.55
2023-08-04T05:55:27.732Z,16.62
2023-08-04T05:57:56.301Z,16.62
2023-08-04T06:00:23.974Z,16.64
2023-08-04T06:02:51.082Z,16.67
2023-08-04T06:05:18.196Z,16.64
2023-08-04T06:07:45.488Z,16.69
2023-08-04T06:10:12.635Z,16.68
2023-08-04T06:12:39.806Z,16.46
2023-08-04T06:15:07.008Z,16.73
2023-08-04T06:17:33.808Z,16.71
2023-08-04T06:20:00.724Z,16.62
2023-08-04T06:22:27.465Z,16.67
2023-08-04T06:24:54.283Z,16.71
2023-08-04T06:27:21.001Z,16.52
2023-08-04T06:29:47.874Z,16.57
2023-08-04T06:32:14.704Z,16.40
2023-08-04T06:34:41.471Z,16.42
2023-08-04T06:37:08.248Z,16.43
2023-08-04T06:39:39.005Z,16.21
2023-08-04T06:42:05.851Z,16.24
2023-08-04T06:44:32.576Z,16.16
2023-08-04T06:46:59.383Z,16.32
2023-08-04T06:49:26.081Z,16.38
2023-08-04T06:51:53.022Z,16.36
2023-08-04T06:54:20.444Z,16.26
2023-08-04T06:56:47.135Z,16.31
2023-08-04T06:59:13.940Z,16.22
2023-08-04T07:01:40.657Z,16.09
2023-08-04T07:04:07.406Z,16.15
2023-08-04T07:06:34.159Z,16.19
2023-08-04T07:09:00.904Z,16.06
2023-08-04T07:11:27.680Z,16.06
2023-08-04T07:13:54.383Z,16.09
2023-08-04T07:16:21.442Z,15.84
2023-08-04T07:18:48.359Z,15.91
2023-08-04T07:21:15.806Z,16.07
2023-08-04T07:23:43.173Z,15.92
2023-08-04T07:26:10.655Z,15.87
2023-08-04T07:28:38.068Z,15.88
2023-08-04T07:31:08.542Z,15.69
2023-08-04T07:33:36.088Z,15.62
2023-08-04T07:36:04.063Z,15.73
2023-08-04T07:38:37.605Z,15.86
2023-08-04T07:41:04.417Z,15.81
2023-08-04T07:43:31.198Z,15.80
2023-08-04T07:45:58.021Z,15.83
2023-08-04T07:48:24.833Z,15.84
2023-08-04T07:50:52.672Z,15.95
2023-08-04T07:53:19.819Z,16.05
2023-08-04T07:55:57.588Z,16.20
2023-08-04T07:58:24.892Z,16.24
2023-08-04T08:00:51.902Z,16.38
2023-08-04T08:03:19.437Z,16.05
2023-08-04T08:05:46.331Z,16.09
2023-08-04T08:08:14.403Z,16.19
2023-08-04T08:10:41.207Z,16.16
2023-08-04T08:13:08.558Z,16.26
2023-08-04T08:15:37.131Z,16.40
2023-08-04T08:18:04.551Z,16.37
2023-08-04T08:20:31.476Z,16.54
2023-08-04T08:22:58.281Z,16.54
2023-08-04T08:25:25.082Z,16.70
2023-08-04T08:27:52.490Z,16.67
2023-08-04T08:30:19.417Z,16.53
2023-08-04T08:32:46.455Z,16.41
2023-08-04T08:35:13.210Z,16.69
2023-08-04T08:37:40.078Z,16.50
2023-08-04T08:40:07.389Z,16.51
2023-08-04T08:42:35.371Z,16.55
2023-08-04T08:45:02.866Z,16.54
2023-08-04T08:47:39.608Z,16.53
2023-08-04T08:50:07.963Z,16.62
2023-08-04T08:52:39.698Z,16.83
2023-08-04T08:55:07.435Z,16.67
2023-08-04T08:57:34.614Z,16.86
2023-08-04T09:00:02.101Z,16.78
2023-08-04T09:02:29.358Z,16.69
2023-08-04T09:04:56.259Z,16.71
2023-08-04T09:07:24.480Z,16.87
2023-08-04T09:09:51.462Z,16.66
2023-08-04T09:12:18.355Z,16.74
2023-08-04T09:14:48.657Z,16.75
2023-08-04T09:17:34.403Z,16.80
2023-08-04T09:20:06.708Z,16.80
2023-08-04T09:22:38.551Z,16.64
2023-08-04T09:25:06.408Z,16.74
2023-08-04T09:27:35.695Z,16.71
2023-08-04T09:30:04.364Z,16.50
2023-08-04T09:32:32.812Z,16.73
2023-08-04T09:35:07.132Z,16.73
2023-08-04T09:37:35.333Z,16.64
2023-08-04T09:40:12.983Z,16.74
2023-08-04T09:42:41.477Z,16.56
2023-08-04T09:45:09.560Z,16.77
2023-08-04T09:47:36.349Z,16.71
2023-08-04T09:50:10.390Z,16.85
2023-08-04T09:52:37.288Z,16.88
2023-08-04T09:55:04.339Z,16.95
2023-08-04T09:57:31.035Z,16.87
2023-08-04T09:59:58.194Z,16.92
2023-08-04T10:02:25.210Z,17.01
2023-08-04T10:04:52.930Z,17.19
2023-08-04T10:07:20.315Z,17.19
2023-08-04T10:09:49.962Z,17.22
2023-08-04T10:12:18.455Z,17.25
2023-08-04T10:14:45.618Z,17.40
2023-08-04T10:17:12.817Z,17.57
2023-08-04T10:19:39.874Z,17.55
2023-08-04T10:22:10.735Z,17.43
2023-08-04T10:24:43.478Z,17.85
2023-08-04T10:27:20.489Z,18.31
2023-08-04T10:30:01.904Z,18.63
2023-08-04T10:32:36.464Z,18.33
2023-08-04T10:35:06.725Z,18.21
2023-08-04T10:37:47.673Z,18.32
2023-08-04T10:40:14.654Z,18.43
2023-08-04T10:43:01.096Z,18.40
2023-08-04T10:45:50.536Z,18.15
2023-08-04T10:48:19.639Z,18.04
2023-08-04T10:50:46.687Z,18.05
2023-08-04T10:53:13.748Z,18.43
2023-08-04T10:55:52.455Z,18.65
2023-08-04T10:58:19.584Z,18.71
2023-08-04T11:00:46.512Z,18.45
2023-08-04T11:03:39.595Z,18.37
2023-08-04T11:06:06.628Z,18.61
2023-08-04T11:08:33.472Z,18.16
2023-08-04T11:11:00.253Z,17.95
2023-08-04T11:13:27.766Z,17.47
2023-08-04T11:15:54.987Z,17.65
2023-08-04T11:18:24.861Z,17.79
2023-08-04T11:20:52.152Z,18.08
2023-08-04T11:23:29.579Z,18.05
2023-08-04T11:25:58.634Z,17.61
2023-08-04T11:28:26.616Z,17.62
2023-08-04T11:31:02.309Z,18.20
2023-08-04T11:33:29.148Z,17.96
2023-08-04T11:35:55.921Z,18.11
2023-08-04T11:38:22.804Z,18.48
2023-08-04T11:40:58.011Z,18.43
2023-08-04T11:43:25.345Z,18.56
2023-08-04T11:45:52.703Z,19.19
2023-08-04T11:48:20.503Z,18.82
2023-08-04T11:50:50.387Z,19.17
2023-08-04T11:53:17.386Z,19.16
2023-08-04T11:56:00.494Z,19.29
2023-08-04T11:58:35.602Z,19.78
2023-08-04T12:01:03.714Z,20.12
2023-08-04T12:03:47.241Z,20.34
2023-08-04T12:06:35.502Z,20.22
2023-08-04T12:09:05.579Z,20.29
2023-08-04T12:11:32.462Z,20.55
2023-08-04T12:14:12.348Z,20.87
2023-08-04T12:16:56.041Z,20.78
2023-08-04T12:19:24.498Z,20.45
2023-08-04T12:21:52.551Z,20.59
2023-08-04T12:24:20.313Z,20.50
2023-08-04T12:26:47.334Z,21.26
2023-08-04T12:29:14.607Z,21.48
2023-08-04T12:31:41.743Z,21.74
2023-08-04T12:34:10.538Z,21.63
2023-08-04T12:36:37.840Z,21.24
2023-08-04T12:39:05.634Z,21.40
2023-08-04T12:41:33.300Z,21.37
2023-08-04T12:44:00.301Z,21.44
2023-08-04T12:46:30.424Z,21.79
2023-08-04T12:48:58.132Z,22.76
2023-08-04T12:51:25.513Z,22.76
2023-08-04T12:53:52.306Z,22.96
2023-08-04T12:56:19.631Z,23.76
2023-08-04T12:58:46.413Z,23.32
2023-08-04T13:01:13.266Z,22.61
2023-08-04T13:03:40.075Z,23.57
2023-08-04T13:06:06.961Z,23.58
2023-08-04T13:08:33.638Z,23.97
2023-08-04T13:11:01.170Z,24.39
2023-08-04T13:13:28.084Z,23.93
2023-08-04T13:15:54.903Z,23.17
2023-08-04T13:18:21.641Z,22.88
2023-08-04T13:20:50.855Z,23.35
2023-08-04T13:23:18.034Z,23.47
2023-08-04T13:25:45.024Z,22.77
2023-08-04T13:28:12.247Z,22.74
2023-08-04T13:30:39.477Z,22.99
2023-08-04T13:33:06.358Z,23.01
2023-08-04T13:35:33.133Z,22.50
2023-08-04T13:38:00.193Z,23.04
2023-08-04T13:40:26.971Z,23.23
2023-08-04T13:42:54.069Z,23.23
2023-08-04T13:45:20.704Z,23.60
2023-08-04T13:47:49.003Z,24.72
2023-08-04T13:50:15.994Z,24.20
2023-08-04T13:52:42.805Z,23.68
2023-08-04T13:55:09.608Z,23.57
2023-08-04T13:57:41.775Z,24.02
2023-08-04T14:00:10.939Z,23.41
2023-08-04T14:02:38.063Z,23.37
2023-08-04T14:05:05.262Z,23.80
2023-08-04T14:07:32.013Z,23.64
2023-08-04T14:09:58.686Z,23.54
2023-08-04T14:12:32.478Z,23.75
2023-08-04T14:14:59.416Z,24.00
2023-08-04T14:17:27.124Z,24.38
2023-08-04T14:19:55.184Z,23.89
2023-08-04T14:22:22.209Z,23.84
2023-08-04T14:24:49.092Z,23.03
2023-08-04T14:27:28.610Z,23.14
2023-08-04T14:29:58.488Z,22.82
2023-08-04T14:32:25.413Z,22.99
2023-08-04T14:34:52.238Z,22.89
2023-08-04T14:37:19.179Z,22.67
2023-08-04T14:39:45.931Z,22.79
2023-08-04T14:42:12.730Z,22.53
2023-08-04T14:44:39.481Z,22.78
2023-08-04T14:47:06.882Z,22.59
2023-08-04T14:49:34.172Z,22.36
2023-08-04T14:52:01.005Z,22.43
2023-08-04T14:54:27.879Z,22.53
2023-08-04T14:56:54.821Z,22.55
2023-08-04T14:59:21.891Z,22.55
2023-08-04T15:01:49.262Z,22.27
2023-08-04T15:04:16.338Z,22.40
2023-08-04T15:06:44.211Z,22.35
2023-08-04T15:09:11.091Z,22.44
2023-08-04T15:11:37.983Z,22.38
2023-08-04T15:14:04.974Z,22.44
2023-08-04T15:16:31.801Z,22.31
2023-08-04T15:18:58.627Z,22.19
2023-08-04T15:21:25.461Z,22.16
2023-08-04T15:23:52.340Z,22.01
2023-08-04T15:26:19.202Z,22.03
2023-08-04T15:28:50.861Z,22.03
2023-08-04T15:31:17.741Z,22.23
2023-08-04T15:33:44.558Z,22.14
2023-08-04T15:36:11.751Z,22.00
2023-08-04T15:38:39.133Z,21.95
2023-08-04T15:41:07.913Z,21.99
2023-08-04T15:43:39.701Z,22.05
2023-08-04T15:46:07.225Z,21.81
2023-08-04T15:48:35.548Z,22.07
2023-08-04T15:51:02.285Z,21.64
2023-08-04T15:53:29.611Z,21.75
2023-08-04T15:55:57.278Z,21.89
2023-08-04T15:58:24.671Z,21.61
2023-08-04T16:00:51.465Z,21.62
2023-08-04T16:03:18.460Z,21.85
2023-08-04T16:05:45.556Z,21.84
2023-08-04T16:08:12.445Z,21.63
2023-08-04T16:10:39.325Z,21.56
2023-08-04T16:13:06.092Z,21.67
2023-08-04T16:15:32.843Z,21.55
2023-08-04T16:17:59.648Z,21.41
2023-08-04T16:20:26.561Z,21.69
2023-08-04T16:22:53.359Z,21.62
2023-08-04T16:25:20.756Z,21.55
2023-08-04T16:27:48.255Z,21.56
2023-08-04T16:30:15.178Z,21.72
2023-08-04T16:32:47.464Z,21.61
2023-08-04T16:35:14.752Z,21.42
2023-08-04T16:37:41.985Z,21.48
2023-08-04T16:40:11.180Z,21.42
2023-08-04T16:42:38.183Z,21.19
2023-08-04T16:45:05.827Z,21.24
2023-08-04T16:47:34.920Z,21.13
2023-08-04T16:50:06.045Z,21.11
2023-08-04T16:52:34.044Z,21.15
2023-08-04T16:55:13.185Z,21.04
2023-08-04T16:57:40.566Z,20.97
2023-08-04T17:00:11.205Z,21.02
2023-08-04T17:02:41.540Z,21.09
2023-08-04T17:05:09.352Z,21.06
2023-08-04T17:07:43.938Z,20.96
2023-08-04T17:10:11.213Z,20.95
2023-08-04T17:12:41.606Z,21.13
2023-08-04T17:15:10.935Z,20.97
2023-08-04T17:17:38.370Z,20.89
2023-08-04T17:20:25.775Z,20.96
2023-08-04T17:22:56.089Z,20.89
2023-08-04T17:25:27.905Z,20.96
2023-08-04T17:27:57.159Z,20.78
2023-08-04T17:30:25.038Z,20.87
2023-08-04T17:32:56.083Z,20.84
2023-08-04T17:35:26.644Z,20.66
2023-08-04T17:37:53.674Z,20.64
2023-08-04T17:40:20.636Z,20.68
2023-08-04T17:42:47.409Z,20.67
2023-08-04T17:45:14.320Z,20.63
2023-08-04T17:47:41.264Z,20.75
2023-08-04T17:50:08.615Z,20.72
2023-08-04T17:52:35.370Z,20.72
2023-08-04T17:55:02.422Z,20.84
2023-08-04T17:57:29.902Z,20.71
2023-08-04T17:59:56.864Z,20.63
2023-08-04T18:02:24.765Z,20.66
2023-08-04T18:04:51.972Z,20.75
2023-08-04T18:07:18.825Z,20.93
2023-08-04T18:09:45.633Z,20.81
2023-08-04T18:12:12.468Z,20.47
2023-08-04T18:14:39.334Z,20.50
2023-08-04T18:17:06.290Z,20.57
2023-08-04T18:19:33.476Z,20.57
2023-08-04T18:22:00.438Z,20.61
2023-08-04T18:24:27.403Z,20.73
2023-08-04T18:26:54.208Z,20.68
2023-08-04T18:29:22.735Z,20.44
2023-08-04T18:31:50.139Z,20.49
2023-08-04T18:34:16.956Z,20.66
2023-08-04T18:36:43.827Z,20.70
2023-08-04T18:39:10.728Z,20.70
2023-08-04T18:41:37.648Z,20.69
2023-08-04T18:44:09.493Z,20.65
2023-08-04T18:46:36.862Z,20.54
2023-08-04T18:49:03.753Z,20.49
2023-08-04T18:51:30.553Z,20.48
2023-08-04T18:53:57.370Z,20.41
2023-08-04T18:56:25.845Z,20.44
2023-08-04T18:58:52.685Z,20.42
2023-08-04T19:01:19.651Z,20.37
2023-08-04T19:03:46.574Z,20.30
2023-08-04T19:06:13.783Z,20.11
2023-08-04T19:08:40.652Z,19.88
2023-08-04T19:11:07.848Z,19.68
2023-08-04T19:13:35.056Z,19.71
2023-08-04T19:16:09.970Z,19.69
2023-08-04T19:18:41.679Z,19.62
2023-08-04T19:21:20.104Z,19.62
2023-08-04T19:24:10.432Z,19.64
2023-08-04T19:26:49.491Z,19.66
2023-08-04T19:29:16.516Z,19.65
2023-08-04T19:31:43.268Z,19.42
2023-08-04T19:34:10.110Z,19.36
2023-08-04T19:36:37.229Z,19.46
2023-08-04T19:39:04.407Z,19.43
2023-08-04T19:41:31.670Z,19.30
2023-08-04T19:43:59.052Z,19.26
2023-08-04T19:46:26.572Z,19.16
2023-08-04T19:48:53.754Z,19.12
2023-08-04T19:51:20.953Z,19.02
2023-08-04T19:53:48.613Z,19.01
2023-08-04T19:56:16.044Z,19.05
2023-08-04T19:58:43.256Z,18.98
2023-08-04T20:01:13.375Z,18.94
2023-08-04T20:03:46.334Z,18.96
2023-08-04T20:06:18.685Z,19.02
2023-08-04T20:08:50.536Z,19.05
2023-08-04T20:11:20.176Z,19.06
2023-08-04T20:13:53.894Z,19.02
2023-08-04T20:16:33.081Z,18.83
2023-08-04T20:19:07.881Z,18.81
2023-08-04T20:21:34.979Z,18.71
2023-08-04T20:24:05.287Z,18.73
2023-08-04T20:26:40.863Z,18.76
2023-08-04T20:29:07.912Z,18.63
2023-08-04T20:31:36.569Z,18.52
2023-08-04T20:34:03.435Z,18.55
2023-08-04T20:36:30.349Z,18.45
2023-08-04T20:38:57.141Z,18.46
2023-08-04T20:41:23.908Z,18.44
2023-08-04T20:43:50.868Z,18.40
2023-08-04T20:46:21.502Z,18.39
2023-08-04T20:48:48.569Z,18.37
2023-08-04T20:51:15.317Z,18.38
2023-08-04T20:53:42.334Z,18.40
2023-08-04T20:56:09.281Z,18.37
2023-08-04T20:58:38.818Z,18.26
2023-08-04T21:01:09.438Z,18.28
2023-08-04T21:03:36.725Z,18.21
2023-08-04T21:06:07.375Z,18.21
2023-08-04T21:08:34.399Z,18.25
2023-08-04T21:11:02.423Z,18.15
2023-08-04T21:13:30.800Z,18.10
2023-08-04T21:15:57.687Z,18.08
2023-08-04T21:18:24.585Z,17.99
2023-08-04T21:20:51.422Z,17.98
2023-08-04T21:23:25.491Z,18.02
2023-08-04T21:25:54.023Z,17.98
2023-08-04T21:28:20.827Z,17.91
2023-08-04T21:30:52.777Z,17.90
2023-08-04T21:33:20.104Z,17.85
2023-08-04T21:35:47.055Z,17.94
2023-08-04T21:38:13.718Z,17.98
2023-08-04T21:40:40.469Z,18.02
2023-08-04T21:43:07.141Z,18.01
2023-08-04T21:45:33.942Z,17.94
2023-08-04T21:48:00.726Z,17.94
2023-08-04T21:50:31.930Z,17.97
2023-08-04T21:52:58.617Z,17.90
2023-08-04T21:55:25.382Z,17.84
2023-08-04T21:57:52.139Z,17.83
2023-08-04T22:00:23.679Z,17.84
2023-08-04T22:02:51.468Z,17.80
2023-08-04T22:05:18.652Z,17.82
2023-08-04T22:07:45.482Z,17.78
2023-08-04T22:10:12.868Z,17.79
2023-08-04T22:12:40.229Z,17.79
2023-08-04T22:15:07.670Z,17.76
2023-08-04T22:17:34.401Z,17.73
2023-08-04T22:20:01.182Z,17.72
2023-08-04T22:22:27.934Z,17.73
2023-08-04T22:24:54.710Z,17.66
2023-08-04T22:27:21.457Z,17.60
2023-08-04T22:29:48.302Z,17.63
2023-08-04T22:32:15.368Z,17.65
2023-08-04T22:34:42.136Z,17.64
2023-08-04T22:37:08.952Z,17.62
2023-08-04T22:39:35.953Z,17.55
2023-08-04T22:42:02.830Z,17.52
2023-08-04T22:44:29.781Z,17.55
2023-08-04T22:46:56.646Z,17.53
2023-08-04T22:49:23.531Z,17.50
2023-08-04T22:51:50.284Z,17.50
2023-08-04T22:54:32.370Z,17.43
2023-08-04T22:57:00.503Z,17.42
2023-08-04T22:59:27.234Z,17.40
2023-08-04T23:01:54.041Z,17.40
2023-08-04T23:04:20.889Z,17.42
2023-08-04T23:06:47.880Z,17.40
2023-08-04T23:09:15.103Z,17.37
2023-08-04T23:11:41.828Z,17.34
2023-08-04T23:14:08.875Z,17.38
2023-08-04T23:16:35.556Z,17.30
2023-08-04T23:19:02.394Z,17.29
2023-08-04T23:21:29.135Z,17.26
2023-08-04T23:23:56.036Z,17.27
2023-08-04T23:26:22.996Z,17.24
2023-08-04T23:28:49.809Z,17.20
2023-08-04T23:31:16.803Z,17.15
2023-08-04T23:33:43.633Z,17.13
2023-08-04T23:36:10.377Z,17.16
2023-08-04T23:38:37.195Z,17.12
2023-08-04T23:41:04.217Z,17.09
2023-08-04T23:43:31.000Z,17.06
2023-08-04T23:45:57.792Z,17.05
2023-08-04T23:48:24.647Z,17.01
2023-08-04T23:50:51.445Z,16.91
2023-08-04T23:53:19.845Z,16.86
2023-08-04T23:55:46.694Z,16.86
2023-08-04T23:58:13.428Z,16.83
